»·PEaware :: CGJZB KBLI-KCLM

CGJZB :: KBLI-KCLM

FLIGHT INFORMATION

Flight Status: Arrived
Operator: Unknown
More flights by this operator :: More flights under this callsign
Pilot: Darcy E. (30361)
Aircraft: CESSNA 172 SKYHAWK
(C172)
More flights by this aircraft type
Origin: KBLI Bellingham Intl
United States
Destination: KCLM Fairchild Intl
United States
More flights between these airports :: More routes between these airports
Route: KIENO6 CVV WATTR
File this flight plan on PilotEdge
Remarks:
Altitude:
(Current/Filed)
4,000ft
Speed:
(Current/Filed)
110kts
Departed: 04-Sep-22 10:23 AM
Arrived: 04-Sep-22 11:07 AM
Distance/Time
Traveled:
56nm/0:44
Distance/Time
To Go:
Arrived

Flight Plot

Page will automatically refresh every two minutes.

Flight plan parsing failed; only flown route is shown


Map Options




Map Legend


Flown Route
Filed Route
Departure Airport
Arrival Airport
Navaid (VOR, NDB)
Fix

Horizontal Profiles

Position Reports

Time Latitude Longitude Heading Altitude Ground
Speed
04-Sep-22 09:49 48.790780 -122.535008 269 161ft 0kts
04-Sep-22 09:50 48.790780 -122.535008 269 161ft 0kts
04-Sep-22 09:51 48.790780 -122.535008 269 161ft 0kts
04-Sep-22 09:52 48.790780 -122.535008 269 161ft 0kts
04-Sep-22 09:53 48.790780 -122.535008 269 161ft 0kts
04-Sep-22 09:54 48.790780 -122.535008 269 161ft 0kts
04-Sep-22 09:55 48.790780 -122.535008 269 161ft 0kts
04-Sep-22 09:56 48.790780 -122.535008 269 161ft 0kts
04-Sep-22 09:57 48.790780 -122.535008 269 161ft 0kts
04-Sep-22 09:57 48.790780 -122.535008 269 161ft 0kts
04-Sep-22 09:59 48.790780 -122.535008 269 161ft 0kts
04-Sep-22 10:00 48.790780 -122.535008 269 161ft 0kts
04-Sep-22 10:00 48.790780 -122.535008 269 161ft 0kts
04-Sep-22 10:02 48.789113 -122.535826 178 165ft 12kts
04-Sep-22 10:03 48.784763 -122.535551 160 173ft 14kts
04-Sep-22 10:04 48.784057 -122.535262 350 172ft 0kts
04-Sep-22 10:04 48.784057 -122.535261 350 172ft 0kts
04-Sep-22 10:05 48.784056 -122.535261 350 172ft 0kts
04-Sep-22 10:06 48.784056 -122.535261 350 172ft 0kts
04-Sep-22 10:08 48.784196 -122.535412 250 172ft 7kts
04-Sep-22 10:09 48.783814 -122.535631 209 171ft 0kts
04-Sep-22 10:09 48.783814 -122.535631 209 171ft 0kts
04-Sep-22 10:10 48.783814 -122.535631 209 171ft 0kts
04-Sep-22 10:11 48.783814 -122.535631 209 171ft 0kts
04-Sep-22 10:12 48.783814 -122.535631 209 171ft 0kts
04-Sep-22 10:13 48.783814 -122.535631 209 171ft 0kts
04-Sep-22 10:14 48.783814 -122.535631 209 171ft 0kts
04-Sep-22 10:15 48.783814 -122.535631 209 171ft 0kts
04-Sep-22 10:16 48.783814 -122.535631 209 171ft 0kts
04-Sep-22 10:17 48.783814 -122.535631 209 171ft 0kts
04-Sep-22 10:18 48.783814 -122.535631 209 171ft 0kts
04-Sep-22 10:19 48.783814 -122.535631 209 171ft 0kts
04-Sep-22 10:20 48.783593 -122.536252 272 169ft 0kts
04-Sep-22 10:21 48.783593 -122.536252 272 169ft 0kts
04-Sep-22 10:22 48.785661 -122.537498 0 168ft 55kts
04-Sep-22 10:23 48.806331 -122.532012 3 963ft 86kts
04-Sep-22 10:24 48.809060 -122.559732 240 1856ft 85kts
04-Sep-22 10:25 48.791767 -122.584008 190 2638ft 92kts
04-Sep-22 10:26 48.765796 -122.581752 183 3371ft 94kts
04-Sep-22 10:27 48.738994 -122.581703 184 3990ft 108kts
04-Sep-22 10:28 48.704585 -122.583317 187 4000ft 126kts
04-Sep-22 10:29 48.670678 -122.588542 190 4019ft 120kts
04-Sep-22 10:30 48.637594 -122.595830 183 4062ft 121kts
04-Sep-22 10:31 48.603609 -122.603754 201 3984ft 124kts
04-Sep-22 10:32 48.569055 -122.615126 192 3950ft 128kts
04-Sep-22 10:33 48.538435 -122.630241 177 3997ft 112kts
04-Sep-22 10:34 48.509197 -122.636581 190 3992ft 108kts
04-Sep-22 10:35 48.481127 -122.644851 189 4041ft 95kts
04-Sep-22 10:36 48.455293 -122.651295 185 4089ft 97kts
04-Sep-22 10:37 48.428781 -122.658187 182 4111ft 93kts
04-Sep-22 10:38 48.401795 -122.668616 194 3986ft 100kts
04-Sep-22 10:39 48.376493 -122.685166 192 4027ft 96kts
04-Sep-22 10:40 48.349784 -122.691617 189 4005ft 97kts
04-Sep-22 10:41 48.323863 -122.701668 181 4036ft 99kts
04-Sep-22 10:42 48.297937 -122.707932 180 4123ft 90kts
04-Sep-22 10:43 48.271530 -122.721377 188 3953ft 100kts
04-Sep-22 10:44 48.246103 -122.733879 201 4076ft 95kts
04-Sep-22 10:45 48.227724 -122.767375 221 4052ft 106kts
04-Sep-22 10:46 48.208766 -122.799426 225 4076ft 106kts
04-Sep-22 10:47 48.189561 -122.834144 234 3921ft 116kts
04-Sep-22 10:48 48.172678 -122.870776 226 4043ft 104kts
04-Sep-22 10:49 48.156660 -122.907901 226 4029ft 107kts
04-Sep-22 10:50 48.141364 -122.945219 244 3974ft 110kts
04-Sep-22 10:51 48.127864 -122.983595 235 3948ft 105kts
04-Sep-22 10:52 48.117838 -123.024159 240 3873ft 103kts
04-Sep-22 10:53 48.103971 -123.062770 246 3728ft 106kts
04-Sep-22 10:54 48.092394 -123.101307 250 3624ft 91kts
04-Sep-22 10:55 48.083216 -123.133811 253 3694ft 85kts
04-Sep-22 10:56 48.082604 -123.168121 268 3613ft 85kts
04-Sep-22 10:57 48.084618 -123.202835 271 3249ft 84kts
04-Sep-22 10:58 48.085874 -123.237739 271 3017ft 81kts
04-Sep-22 10:59 48.085505 -123.272338 272 3015ft 84kts
04-Sep-22 11:00 48.087101 -123.307044 273 3038ft 83kts
04-Sep-22 11:01 48.092537 -123.340439 282 3000ft 82kts
04-Sep-22 11:02 48.096616 -123.374664 290 2493ft 88kts
04-Sep-22 11:03 48.103110 -123.409778 284 1836ft 88kts
04-Sep-22 11:04 48.109141 -123.445366 282 1178ft 88kts
04-Sep-22 11:05 48.115557 -123.480264 285 484ft 83kts
04-Sep-22 11:06 48.119173 -123.501799 223 266ft 13kts
04-Sep-22 11:07 48.118491 -123.502138 194 269ft 0kts
04-Sep-22 11:08 48.117427 -123.500492 277 269ft 6kts
04-Sep-22 11:09 48.117481 -123.501004 292 270ft 0kts
04-Sep-22 11:10 48.117481 -123.501004 292 270ft 0kts
04-Sep-22 11:11 48.117481 -123.501004 292 270ft 0kts
04-Sep-22 11:12 48.117481 -123.501004 292 270ft 0kts
04-Sep-22 11:13 48.117481 -123.501004 292 270ft 0kts
04-Sep-22 11:14 48.117481 -123.501004 292 270ft 0kts
04-Sep-22 11:15 48.117481 -123.501004 292 270ft 0kts
04-Sep-22 11:16 48.117481 -123.501004 292 270ft 0kts
04-Sep-22 11:17 48.117481 -123.501004 292 270ft 0kts

Navigation Log

Ident Type
Flight plan parsing failed, navigation log unavailable